Time;durP1;ratioP1;P1;durP2;ratioP2;P2;SDS_P1;SDS_P2;PMS_P1;PMS_P2;Temp;Humidity;BMP_temperature;BMP_pressure;BME280_temperature;BME280_humidity;BME280_pressure;Samples;Min_cycle;Max_cycle;Signal;HPM_P1;HPM_P2
2023/10/09 00:03:00;;;;;;;1.73;0.77;;;25.90;46.00;;;;;;4880045;29;20049;-73
2023/10/09 00:05:53;;;;;;;0.85;0.73;;;25.90;46.00;;;;;;4895803;29;20045;-74
2023/10/09 00:08:21;;;;;;;1.10;0.75;;;26.00;46.40;;;;;;4909972;29;20091;-74
2023/10/09 00:10:54;;;;;;;1.75;0.80;;;26.00;46.40;;;;;;4914552;29;20036;-74
2023/10/09 00:13:29;;;;;;;;;;;25.90;45.90;;;;;;4930788;29;20087;-74
2023/10/09 00:16:01;;;;;;;0.80;0.70;;;26.00;46.40;;;;;;4933857;29;19911;-74
2023/10/09 00:18:33;;;;;;;1.20;0.93;;;25.90;45.90;;;;;;4932815;29;20488;-74
2023/10/09 00:21:12;;;;;;;1.60;0.60;;;25.90;45.90;;;;;;4935437;29;20066;-74
2023/10/09 00:23:40;;;;;;;1.08;0.90;;;26.00;46.30;;;;;;4935631;29;20288;-74
2023/10/09 00:26:16;;;;;;;1.05;0.93;;;25.90;45.80;;;;;;4936051;29;20036;-74
2023/10/09 00:28:50;;;;;;;0.80;0.60;;;26.00;46.30;;;;;;4935274;29;20127;-74
2023/10/09 00:31:29;;;;;;;1.05;0.60;;;26.00;46.20;;;;;;4933733;29;20036;-74
2023/10/09 00:33:56;;;;;;;1.35;0.77;;;26.00;46.20;;;;;;4934185;29;20074;-74
2023/10/09 00:36:28;;;;;;;2.72;0.75;;;26.00;46.20;;;;;;4935572;29;20040;-74
2023/10/09 00:38:54;;;;;;;0.50;0.50;;;25.90;45.80;;;;;;4935174;29;20035;-74
2023/10/09 00:41:22;;;;;;;4.20;0.80;;;25.90;45.70;;;;;;4934293;29;20050;-74
2023/10/09 00:43:52;;;;;;;1.00;0.75;;;25.90;45.80;;;;;;4935223;29;20039;-74
2023/10/09 00:48:53;;;;;;;4.55;0.80;;;25.80;45.80;;;;;;4933770;29;20067;-74
2023/10/09 00:51:21;;;;;;;0.63;0.63;;;25.70;45.80;;;;;;4934057;29;20028;-73
2023/10/09 00:53:51;;;;;;;1.10;0.80;;;25.70;45.80;;;;;;4934481;29;20139;-74
2023/10/09 00:59:06;;;;;;;0.90;0.70;;;25.70;45.80;;;;;;4935040;29;20040;-74
2023/10/09 01:01:36;;;;;;;4.50;0.93;;;25.70;45.80;;;;;;4934459;29;20032;-74
2023/10/09 01:04:07;;;;;;;3.38;0.70;;;25.80;45.90;;;;;;4933613;29;20500;-74
2023/10/09 01:06:35;;;;;;;0.93;0.70;;;25.70;45.80;;;;;;4935231;29;20032;-74
2023/10/09 01:09:10;;;;;;;0.88;0.55;;;25.80;45.80;;;;;;4933092;29;20039;-74
2023/10/09 01:11:47;;;;;;;1.65;0.65;;;25.80;45.80;;;;;;4934436;29;20407;-74
2023/10/09 01:14:15;;;;;;;1.35;0.93;;;25.80;45.80;;;;;;4933644;29;20107;-74
2023/10/09 01:16:42;;;;;;;2.38;0.75;;;25.80;45.80;;;;;;4932900;29;20036;-74
2023/10/09 01:19:13;;;;;;;0.70;0.70;;;25.80;45.80;;;;;;4933077;29;20391;-74
2023/10/09 01:21:42;;;;;;;0.55;0.55;;;25.80;45.80;;;;;;4933480;29;20068;-74
2023/10/09 01:24:16;;;;;;;1.33;0.73;;;25.70;45.80;;;;;;5068443;28;20411;-74
2023/10/09 01:26:54;;;;;;;0.90;0.80;;;25.70;45.80;;;;;;5085939;28;20047;-74
2023/10/09 01:29:22;;;;;;;1.13;0.50;;;25.80;45.70;;;;;;5068496;28;20047;-75
2023/10/09 01:31:56;;;;;;;0.93;0.60;;;25.80;45.70;;;;;;5085779;28;20040;-74
2023/10/09 01:37:23;;;;;;;1.23;0.70;;;25.90;45.60;;;;;;5088376;28;20097;-74
2023/10/09 01:39:50;;;;;;;2.97;0.90;;;25.80;45.60;;;;;;5085687;28;20032;-74
2023/10/09 01:44:58;;;;;;;1.25;0.80;;;25.80;45.70;;;;;;5068673;28;20585;-74
2023/10/09 01:47:25;;;;;;;0.90;0.63;;;25.60;45.70;;;;;;5068080;28;20063;-74
2023/10/09 01:49:52;;;;;;;1.20;0.82;;;25.70;45.70;;;;;;5025392;28;20429;-76
2023/10/09 01:52:20;;;;;;;1.85;0.73;;;25.70;45.70;;;;;;5009240;28;20053;-74
2023/10/09 01:54:50;;;;;;;5.57;0.75;;;25.70;45.80;;;;;;4992917;28;20072;-74
2023/10/09 01:57:29;;;;;;;1.17;0.80;;;25.80;45.80;;;;;;5009059;28;20053;-74
2023/10/09 01:59:59;;;;;;;1.85;0.90;;;25.70;45.80;;;;;;4992525;28;20072;-74
2023/10/09 02:02:33;;;;;;;0.57;0.47;;;25.60;45.80;;;;;;5025119;28;20745;-74
2023/10/09 02:07:40;;;;;;;0.63;0.60;;;25.70;45.80;;;;;;5023169;28;20045;-74
2023/10/09 02:12:57;;;;;;;0.95;0.60;;;25.60;45.80;;;;;;5025088;28;20052;-74
2023/10/09 02:18:25;;;;;;;2.00;0.55;;;25.70;45.80;;;;;;4993114;28;20132;-74
2023/10/09 02:23:40;;;;;;;1.27;0.47;;;25.70;45.70;;;;;;5004514;28;20050;-74
2023/10/09 02:26:08;;;;;;;0.63;0.63;;;25.60;45.70;;;;;;5004846;28;20041;-74
2023/10/09 02:28:34;;;;;;;1.90;0.70;;;25.70;45.60;;;;;;5043697;28;20029;-74
2023/10/09 02:31:09;;;;;;;1.98;0.77;;;25.70;45.60;;;;;;5043363;28;20052;-74
2023/10/09 02:33:36;;;;;;;1.63;0.90;;;25.70;45.60;;;;;;5042004;28;20041;-74
2023/10/09 02:36:05;;;;;;;1.60;0.65;;;25.70;45.50;;;;;;5013518;28;20080;-74
2023/10/09 02:38:41;;;;;;;2.58;0.90;;;25.60;45.50;;;;;;5030069;28;20117;-74
2023/10/09 02:43:50;;;;;;;1.10;0.90;;;25.70;45.60;;;;;;5030711;28;20096;-74
2023/10/09 02:46:18;;;;;;;1.98;1.10;;;25.50;45.60;;;;;;5020666;28;20373;-74
2023/10/09 02:48:52;;;;;;;0.70;0.70;;;25.60;45.60;;;;;;5014377;28;20048;-74
2023/10/09 02:53:55;;;;;;;1.40;0.73;;;25.50;45.60;;;;;;5031135;28;20037;-74
2023/10/09 02:56:24;;;;;;;1.55;0.98;;;25.50;45.70;;;;;;5066314;28;20041;-74
2023/10/09 02:58:55;;;;;;;2.90;0.90;;;25.50;45.70;;;;;;5051185;28;20040;-74
2023/10/09 03:01:21;;;;;;;3.00;1.13;;;25.40;45.70;;;;;;5051721;28;20041;-74
2023/10/09 03:03:48;;;;;;;1.27;0.80;;;25.60;45.70;;;;;;5035126;28;20053;-74
2023/10/09 03:06:28;;;;;;;1.38;0.80;;;25.60;45.70;;;;;;5031874;28;20152;-74
2023/10/09 03:08:54;;;;;;;0.90;0.65;;;25.60;45.70;;;;;;5043271;28;20036;-74
2023/10/09 03:11:21;;;;;;;1.40;0.82;;;25.60;45.60;;;;;;5051965;28;20033;-74
2023/10/09 03:13:47;;;;;;;1.55;1.05;;;25.50;45.60;;;;;;5052876;28;20017;-74
2023/10/09 03:16:21;;;;;;;2.53;0.95;;;25.60;45.60;;;;;;5034070;28;20045;-74
2023/10/09 03:18:52;;;;;;;1.25;0.82;;;25.50;45.60;;;;;;5058154;28;20073;-74
2023/10/09 03:21:21;;;;;;;3.33;0.88;;;25.60;45.60;;;;;;5033354;28;20037;-74
2023/10/09 03:23:51;;;;;;;1.88;1.48;;;25.60;45.70;;;;;;5033485;28;20482;-74
2023/10/09 03:26:21;;;;;;;3.33;1.23;;;25.60;45.70;;;;;;5032934;28;20124;-74
2023/10/09 03:28:47;;;;;;;1.63;1.02;;;25.60;45.60;;;;;;5050481;28;20033;-74
2023/10/09 03:31:13;;;;;;;0.93;0.90;;;25.60;45.60;;;;;;5056945;28;20032;-74
2023/10/09 03:33:41;;;;;;;0.85;0.82;;;25.60;45.60;;;;;;5055149;28;20486;-74
2023/10/09 03:36:09;;;;;;;0.93;0.90;;;25.60;45.60;;;;;;5052173;28;20144;-74
2023/10/09 03:38:39;;;;;;;1.15;0.70;;;25.40;45.60;;;;;;5052162;28;20032;-74
2023/10/09 03:41:06;;;;;;;1.67;0.90;;;25.40;45.60;;;;;;5052816;28;20033;-74
2023/10/09 03:43:37;;;;;;;1.05;1.00;;;25.60;45.60;;;;;;5052384;28;20036;-74
2023/10/09 03:46:05;;;;;;;0.70;0.70;;;25.40;45.60;;;;;;5050034;28;20048;-74
2023/10/09 03:48:35;;;;;;;0.65;0.65;;;25.40;45.60;;;;;;5052286;28;20476;-74
2023/10/09 03:51:20;;;;;;;2.10;1.25;;;25.50;45.60;;;;;;5052208;28;20064;-74
2023/10/09 03:53:47;;;;;;;1.67;0.73;;;25.40;45.70;;;;;;5052297;28;20118;-75
2023/10/09 03:56:15;;;;;;;1.00;0.90;;;25.40;45.80;;;;;;5050850;28;20036;-74
2023/10/09 03:58:49;;;;;;;1.00;0.80;;;25.40;45.90;;;;;;5052115;28;20536;-74
2023/10/09 04:01:27;;;;;;;0.70;0.70;;;25.50;45.90;;;;;;5051801;28;20039;-74
2023/10/09 04:03:59;;;;;;;2.78;1.30;;;25.50;45.90;;;;;;5052379;28;20060;-74
2023/10/09 04:06:32;;;;;;;1.83;1.13;;;25.50;45.90;;;;;;5052222;28;20029;-74
2023/10/09 04:11:46;;;;;;;1.20;0.93;;;25.30;45.80;;;;;;5052439;28;20040;-74
2023/10/09 04:14:33;;;;;;;1.20;0.90;;;25.40;45.80;;;;;;5051521;28;20036;-74
2023/10/09 04:17:08;;;;;;;2.88;1.17;;;25.50;45.80;;;;;;5051703;28;20568;-75
2023/10/09 04:19:48;;;;;;;1.10;1.00;;;25.50;45.70;;;;;;5050509;28;20481;-74
2023/10/09 04:22:26;;;;;;;1.00;0.90;;;25.50;45.70;;;;;;5049135;28;20127;-74
2023/10/09 04:24:52;;;;;;;2.38;0.93;;;25.50;45.70;;;;;;5066219;28;20048;-74
2023/10/09 04:27:26;;;;;;;1.08;0.88;;;25.40;45.80;;;;;;5050661;28;20037;-74
2023/10/09 04:29:54;;;;;;;1.48;0.80;;;25.50;45.70;;;;;;5051152;28;20033;-73
2023/10/09 04:32:24;;;;;;;1.10;0.75;;;25.40;45.80;;;;;;5051267;28;20487;-74
2023/10/09 04:35:19;;;;;;;1.63;0.68;;;25.40;45.80;;;;;;5051860;28;20033;-75
2023/10/09 04:37:44;;;;;;;1.13;0.70;;;25.30;45.90;;;;;;5051892;28;20059;-74
2023/10/09 04:40:41;;;;;;;3.75;0.90;;;25.30;45.90;;;;;;5051960;28;20028;-74
2023/10/09 04:42:59;;;;;;;2.45;0.85;;;25.40;45.90;;;;;;5050000;28;20381;-74
2023/10/09 04:48:32;;;;;;;4.60;1.02;;;25.30;45.90;;;;;;5051115;28;20036;-73
2023/10/09 04:51:20;;;;;;;1.17;0.73;;;25.30;46.00;;;;;;5039767;28;20136;-74
2023/10/09 04:56:53;;;;;;;1.17;0.88;;;25.40;46.00;;;;;;5048172;28;20037;-74
2023/10/09 04:59:24;;;;;;;0.88;0.85;;;25.30;46.00;;;;;;5039174;28;20068;-74
2023/10/09 05:01:58;;;;;;;3.28;1.10;;;25.40;46.00;;;;;;5041737;28;20346;-74
2023/10/09 05:07:22;;;;;;;2.10;1.08;;;25.30;45.90;;;;;;5048722;28;20041;-74
2023/10/09 05:10:09;;;;;;;2.75;0.95;;;25.40;45.90;;;;;;5032281;28;20037;-74
2023/10/09 05:12:41;;;;;;;3.40;1.08;;;25.40;45.90;;;;;;5048924;28;20120;-76
2023/10/09 05:15:12;;;;;;;1.85;0.88;;;25.50;45.90;;;;;;5032404;28;20054;-74
2023/10/09 05:17:39;;;;;;;1.25;0.90;;;25.40;45.80;;;;;;5012514;28;20140;-74
2023/10/09 05:20:55;;;;;;;1.35;1.25;;;25.50;45.80;;;;;;5033680;28;20115;-74
2023/10/09 05:23:23;;;;;;;4.32;0.82;;;25.30;45.80;;;;;;5034397;28;20077;-74
2023/10/09 05:26:26;;;;;;;2.08;0.82;;;25.30;45.80;;;;;;5041588;28;20511;-72
2023/10/09 05:28:52;;;;;;;4.28;1.67;;;25.30;45.90;;;;;;5034238;28;20029;-72
2023/10/09 05:31:45;;;;;;;2.25;1.00;;;25.40;45.90;;;;;;5027859;28;20040;-71
2023/10/09 05:34:12;;;;;;;3.33;1.73;;;25.40;46.00;;;;;;5041343;28;20037;-72
2023/10/09 05:36:38;;;;;;;3.65;1.13;;;25.30;46.10;;;;;;5049291;28;20037;-73
2023/10/09 05:39:40;;;;;;;3.58;1.55;;;25.30;46.60;;;;;;5050346;28;20102;-73
2023/10/09 05:42:17;;;;;;;1.73;1.35;;;25.30;46.80;;;;;;5049942;28;20039;-72
2023/10/09 05:46:01;;;;;;;5.85;1.60;;;25.20;47.20;;;;;;5061798;28;20025;-72
2023/10/09 06:03:53;;;;;;;2.63;1.65;;;25.30;47.80;;;;;;5049484;28;20040;-71
2023/10/09 06:06:32;;;;;;;3.20;1.50;;;25.30;47.70;;;;;;5040072;28;20468;-71
2023/10/09 06:11:49;;;;;;;6.25;1.40;;;25.30;47.40;;;;;;5054527;28;20383;-72
2023/10/09 06:19:31;;;;;;;1.88;1.60;;;25.30;47.00;;;;;;5054152;28;20050;-73
2023/10/09 06:24:41;;;;;;;3.40;1.42;;;25.30;46.90;;;;;;5052605;28;20477;-73
2023/10/09 06:34:56;;;;;;;1.35;0.90;;;25.40;46.90;;;;;;5053998;28;20033;-72
2023/10/09 06:45:14;;;;;;;1.95;0.90;;;25.30;47.00;;;;;;5052278;28;20045;-73
2023/10/09 06:47:41;;;;;;;2.88;0.80;;;25.30;47.00;;;;;;5053920;28;20060;-73
2023/10/09 06:55:51;;;;;;;1.67;1.25;;;25.30;47.20;;;;;;5053838;28;20035;-73
2023/10/09 06:58:28;;;;;;;1.65;0.82;;;25.40;47.20;;;;;;5052990;28;20469;-73
2023/10/09 07:03:34;;;;;;;1.77;0.88;;;25.30;47.20;;;;;;5034123;28;20041;-73
2023/10/09 07:06:23;;;;;;;4.03;0.80;;;25.50;47.20;;;;;;5046150;28;20029;-72
2023/10/09 07:17:26;;;;;;;1.27;1.17;;;25.50;47.30;;;;;;5033023;28;20038;-72
2023/10/09 07:25:02;;;;;;;1.10;0.70;;;25.40;47.20;;;;;;5073262;28;20033;-73
2023/10/09 07:27:48;;;;;;;0.63;0.63;;;25.30;47.20;;;;;;5054144;28;20036;-73
2023/10/09 07:38:14;;;;;;;1.63;0.70;;;25.30;47.20;;;;;;5033074;28;20501;-72
2023/10/09 07:43:38;;;;;;;3.45;1.52;;;25.50;47.30;;;;;;5047996;28;20055;-73
2023/10/09 07:48:55;;;;;;;3.08;0.70;;;25.30;47.30;;;;;;5050072;28;20532;-73
2023/10/09 07:51:31;;;;;;;1.33;0.57;;;25.30;47.30;;;;;;5050242;28;20052;-73
2023/10/09 07:54:08;;;;;;;0.82;0.80;;;25.30;47.30;;;;;;5033285;28;20028;-72
2023/10/09 07:56:46;;;;;;;1.33;0.88;;;25.40;47.30;;;;;;5049607;28;20072;-72
2023/10/09 07:59:19;;;;;;;1.73;0.80;;;25.30;47.30;;;;;;5031101;28;20041;-72
2023/10/09 08:02:03;;;;;;;1.92;0.70;;;25.50;47.20;;;;;;5029917;28;20049;-72
2023/10/09 08:04:48;;;;;;;1.45;0.82;;;25.40;47.30;;;;;;5013434;28;20140;-73
2023/10/09 08:07:34;;;;;;;2.15;0.98;;;25.40;47.20;;;;;;5029798;28;20891;-71
2023/10/09 08:17:58;;;;;;;1.17;1.02;;;25.40;47.20;;;;;;5050450;28;20036;-72
2023/10/09 08:20:27;;;;;;;1.85;0.73;;;25.30;47.20;;;;;;5051953;28;20086;-72
2023/10/09 08:22:57;;;;;;;1.35;0.70;;;25.50;47.20;;;;;;5051445;28;20098;-72
2023/10/09 08:25:27;;;;;;;0.88;0.75;;;25.30;47.20;;;;;;5051969;28;20020;-73
2023/10/09 08:30:49;;;;;;;2.08;0.85;;;25.30;47.20;;;;;;5051807;28;20033;-72
2023/10/09 08:33:40;;;;;;;0.85;0.57;;;25.30;47.20;;;;;;5051652;28;20041;-72
2023/10/09 08:36:08;;;;;;;0.73;0.70;;;25.30;47.20;;;;;;5051438;28;20071;-72
2023/10/09 08:38:34;;;;;;;2.15;1.02;;;25.40;47.30;;;;;;5051849;28;20515;-72
2023/10/09 08:41:17;;;;;;;3.55;0.88;;;25.30;47.30;;;;;;5051560;28;20476;-72
2023/10/09 08:43:50;;;;;;;1.90;0.80;;;25.30;47.30;;;;;;5031791;28;20487;-71
2023/10/09 08:46:26;;;;;;;0.57;0.57;;;25.30;47.30;;;;;;5051135;28;20485;-73
2023/10/09 08:48:55;;;;;;;1.40;0.80;;;25.40;47.30;;;;;;5046494;28;20489;-73
2023/10/09 08:51:23;;;;;;;1.85;0.65;;;25.30;47.10;;;;;;5050768;28;20055;-74
2023/10/09 08:53:49;;;;;;;1.35;0.90;;;25.40;47.20;;;;;;5051161;28;20051;-72
2023/10/09 08:56:23;;;;;;;0.63;0.40;;;25.40;47.10;;;;;;5049140;28;20021;-71
2023/10/09 08:58:56;;;;;;;0.57;0.52;;;25.40;47.10;;;;;;5050605;28;20430;-71
2023/10/09 09:01:24;;;;;;;1.90;0.95;;;25.40;47.10;;;;;;5051092;28;20041;-72
2023/10/09 09:03:51;;;;;;;2.25;0.77;;;25.40;47.10;;;;;;5049835;28;20098;-71
2023/10/09 09:06:19;;;;;;;2.80;0.60;;;25.40;47.10;;;;;;5050597;28;20029;-73
2023/10/09 09:08:46;;;;;;;1.45;0.60;;;25.50;47.00;;;;;;5058377;28;20091;-73
2023/10/09 09:11:18;;;;;;;2.58;0.80;;;25.30;47.20;;;;;;5035642;28;20429;-70
2023/10/09 09:13:48;;;;;;;0.60;0.60;;;25.30;47.00;;;;;;5050350;28;20043;-74
2023/10/09 09:16:22;;;;;;;1.35;0.60;;;25.30;47.00;;;;;;5050953;28;20040;-71
2023/10/09 09:21:45;;;;;;;2.00;0.70;;;25.30;46.90;;;;;;5060162;28;20047;-73
2023/10/09 09:27:20;;;;;;;2.67;0.90;;;25.30;47.20;;;;;;5051156;28;20029;-73
2023/10/09 09:29:52;;;;;;;1.50;1.23;;;25.20;48.30;;;;;;5041104;28;20424;-73
2023/10/09 09:32:35;;;;;;;2.80;1.10;;;25.10;47.90;;;;;;5050608;28;20421;-72
2023/10/09 09:35:05;;;;;;;3.60;1.83;;;25.30;52.00;;;;;;5048617;28;20396;-71
2023/10/09 09:43:05;;;;;;;2.83;0.65;;;26.00;47.90;;;;;;5049728;28;20047;-72
2023/10/09 09:45:35;;;;;;;1.20;0.80;;;25.80;46.90;;;;;;5037686;28;20033;-74
2023/10/09 09:48:10;;;;;;;3.50;0.82;;;25.90;45.70;;;;;;5053227;28;20036;-73
2023/10/09 09:50:43;;;;;;;1.13;0.90;;;25.90;47.50;;;;;;5054047;28;20033;-75
2023/10/09 09:53:19;;;;;;;2.38;1.02;;;25.80;49.10;;;;;;5053918;28;20029;-75
2023/10/09 09:55:57;;;;;;;4.00;1.50;;;25.70;49.40;;;;;;5052766;28;20464;-75
2023/10/09 09:58:27;;;;;;;2.63;1.10;;;26.00;49.50;;;;;;5054486;28;20045;-77
2023/10/09 10:00:57;;;;;;;23.30;3.88;;;26.00;49.10;;;;;;5068514;28;20039;-78
2023/10/09 10:03:37;;;;;;;3.97;1.48;;;26.20;49.50;;;;;;5052245;28;20131;-77
2023/10/09 10:06:10;;;;;;;3.15;1.35;;;26.00;49.40;;;;;;5053999;28;20366;-75
2023/10/09 10:08:39;;;;;;;3.97;1.50;;;26.30;47.90;;;;;;5054065;28;20036;-75
2023/10/09 10:11:05;;;;;;;3.65;1.00;;;26.30;47.10;;;;;;5052538;28;20025;-76
2023/10/09 10:13:40;;;;;;;2.55;1.00;;;26.50;43.80;;;;;;5054006;28;20374;-72
2023/10/09 10:16:34;;;;;;;0.70;0.70;;;26.50;45.10;;;;;;5053449;28;20052;-72
2023/10/09 10:19:06;;;;;;;3.50;1.70;;;26.40;44.60;;;;;;5052246;28;20044;-76
2023/10/09 10:24:26;;;;;;;1.77;1.20;;;26.70;43.80;;;;;;5053889;28;20049;-76
2023/10/09 10:27:26;;;;;;;4.82;1.40;;;26.80;43.40;;;;;;5045377;28;20025;-74
2023/10/09 10:30:13;;;;;;;6.80;1.90;;;26.90;47.00;;;;;;5056635;28;20060;-75
2023/10/09 10:32:52;;;;;;;4.90;1.73;;;27.00;46.90;;;;;;5032836;28;20029;-75
2023/10/09 10:38:34;;;;;;;7.00;1.10;;;27.00;44.60;;;;;;5056466;28;20041;-74
2023/10/09 10:41:16;;;;;;;4.00;0.80;;;27.00;39.40;;;;;;5051919;28;20073;-76
2023/10/09 10:46:37;;;;;;;5.03;1.60;;;26.90;38.60;;;;;;5042604;28;20476;-76
2023/10/09 10:49:25;;;;;;;5.20;1.27;;;26.80;38.10;;;;;;5050497;28;20138;-73
2023/10/09 10:57:03;;;;;;;2.95;0.95;;;26.70;37.30;;;;;;5051231;28;20466;-75
2023/10/09 10:59:41;;;;;;;2.72;0.90;;;26.80;37.10;;;;;;5050931;28;20111;-76
2023/10/09 11:04:53;;;;;;;1.45;0.93;;;26.60;36.60;;;;;;5053104;28;20037;-73
2023/10/09 11:18:19;;;;;;;0.88;0.68;;;26.50;36.30;;;;;;5053038;28;20037;-73
2023/10/09 11:29:12;;;;;;;1.55;0.80;;;26.40;37.60;;;;;;5053838;28;20092;-73
2023/10/09 11:31:57;;;;;;;1.23;0.90;;;26.40;37.70;;;;;;5052916;28;20040;-75
2023/10/09 11:34:31;;;;;;;1.67;1.00;;;26.40;37.70;;;;;;5069085;28;20037;-75
2023/10/09 11:37:13;;;;;;;3.65;0.75;;;26.40;37.70;;;;;;5052017;28;20041;-73
2023/10/09 11:39:55;;;;;;;0.63;0.50;;;26.20;37.80;;;;;;5052898;28;20033;-74
2023/10/09 11:42:37;;;;;;;1.73;0.90;;;26.30;37.90;;;;;;5052715;28;20090;-74
2023/10/09 11:45:20;;;;;;;1.38;0.68;;;26.20;38.00;;;;;;5052355;28;20385;-75
2023/10/09 11:47:59;;;;;;;1.80;0.60;;;26.10;38.00;;;;;;5051921;28;20065;-73
2023/10/09 11:50:43;;;;;;;1.58;0.70;;;26.10;38.00;;;;;;5051797;28;20043;-74
2023/10/09 11:55:49;;;;;;;0.73;0.73;;;26.20;38.10;;;;;;5054876;28;20075;-75
2023/10/09 11:58:22;;;;;;;0.95;0.60;;;26.10;38.00;;;;;;5052946;28;20124;-73
2023/10/09 12:01:03;;;;;;;0.77;0.60;;;26.10;38.10;;;;;;5050989;28;20036;-75
2023/10/09 12:03:30;;;;;;;1.55;0.90;;;26.10;38.10;;;;;;5052533;28;20041;-75
2023/10/09 12:05:57;;;;;;;1.08;0.75;;;26.00;38.10;;;;;;5050000;28;20055;-74
2023/10/09 12:08:26;;;;;;;0.82;0.82;;;26.00;38.20;;;;;;5049554;28;20041;-74
2023/10/09 12:10:55;;;;;;;2.33;0.65;;;26.00;38.20;;;;;;5050979;28;20025;-72
2023/10/09 12:13:23;;;;;;;1.02;0.90;;;26.00;38.20;;;;;;5050130;28;20021;-75
2023/10/09 12:15:52;;;;;;;1.35;0.80;;;26.00;38.50;;;;;;5049286;28;20053;-74
2023/10/09 12:18:19;;;;;;;0.68;0.68;;;25.90;38.30;;;;;;5029715;28;20072;-76
2023/10/09 12:20:50;;;;;;;0.85;0.70;;;25.80;38.40;;;;;;5012798;28;20089;-74
2023/10/09 12:23:18;;;;;;;1.35;0.68;;;25.80;38.40;;;;;;5026321;28;20144;-75
2023/10/09 12:25:45;;;;;;;2.22;0.77;;;25.80;38.50;;;;;;5029866;28;20037;-75
2023/10/09 12:28:14;;;;;;;2.13;0.80;;;25.90;38.50;;;;;;5028437;28;20045;-75
2023/10/09 12:30:47;;;;;;;1.52;0.90;;;25.80;38.60;;;;;;5009783;28;20350;-76
2023/10/09 12:33:15;;;;;;;5.70;1.73;;;25.90;38.70;;;;;;5026033;28;20052;-78
2023/10/09 12:35:41;;;;;;;2.38;2.03;;;25.90;38.90;;;;;;5012900;28;20060;-76
2023/10/09 12:38:12;;;;;;;1.60;1.10;;;25.80;39.20;;;;;;5013519;28;20056;-74
2023/10/09 12:40:50;;;;;;;2.53;1.13;;;25.80;39.50;;;;;;5019989;28;20048;-75
2023/10/09 12:43:23;;;;;;;3.20;0.98;;;25.90;39.70;;;;;;5026103;28;20078;-74
2023/10/09 12:45:49;;;;;;;2.05;0.95;;;26.00;40.30;;;;;;5025714;28;20048;-75
2023/10/09 12:48:15;;;;;;;1.52;0.95;;;25.90;40.00;;;;;;5014577;28;20034;-75
2023/10/09 12:50:41;;;;;;;0.77;0.63;;;25.90;40.10;;;;;;5010972;28;20101;-73
2023/10/09 12:53:08;;;;;;;2.22;0.85;;;26.00;40.70;;;;;;5025391;28;20052;-75
2023/10/09 12:55:41;;;;;;;1.30;1.00;;;26.00;40.80;;;;;;5028848;28;20041;-74
2023/10/09 12:58:08;;;;;;;;;;;25.90;40.50;;;;;;5019387;28;20369;-75
2023/10/09 13:00:39;;;;;;;1.05;0.77;;;26.00;41.10;;;;;;5004627;28;20000;-76
2023/10/09 13:03:18;;;;;;;1.95;0.98;;;26.00;41.20;;;;;;5009697;28;20038;-75
2023/10/09 13:05:54;;;;;;;2.83;0.93;;;25.90;41.00;;;;;;5027703;28;20041;-76
2023/10/09 13:08:31;;;;;;;1.80;1.00;;;25.90;41.10;;;;;;5051458;28;20025;-74
2023/10/09 13:11:04;;;;;;;2.53;0.80;;;25.90;41.10;;;;;;5051900;28;20051;-75
2023/10/09 13:13:39;;;;;;;2.63;0.90;;;26.00;41.70;;;;;;5051833;28;20090;-74
2023/10/09 13:16:14;;;;;;;1.38;0.70;;;26.00;41.80;;;;;;5051054;28;20029;-76
2023/10/09 13:18:48;;;;;;;2.03;0.98;;;26.00;41.80;;;;;;5060960;28;20033;-75
2023/10/09 13:21:15;;;;;;;1.77;0.85;;;25.90;41.50;;;;;;5072196;28;20380;-75
2023/10/09 13:23:46;;;;;;;1.40;1.05;;;26.00;41.90;;;;;;5052899;28;20052;-75
2023/10/09 13:26:23;;;;;;;2.70;1.00;;;26.00;42.00;;;;;;5070502;28;20043;-75
2023/10/09 13:28:51;;;;;;;2.67;1.00;;;26.00;42.10;;;;;;5059002;28;20033;-76
2023/10/09 13:31:18;;;;;;;2.42;1.05;;;26.00;42.10;;;;;;5049827;28;20384;-76
2023/10/09 13:33:45;;;;;;;3.42;0.90;;;26.00;42.10;;;;;;5032152;28;20121;-74
2023/10/09 13:36:27;;;;;;;2.92;1.30;;;26.00;42.10;;;;;;5031900;28;20044;-76
2023/10/09 13:41:45;;;;;;;3.67;1.20;;;26.00;42.20;;;;;;5031595;28;20033;-75
2023/10/09 13:44:11;;;;;;;2.00;0.95;;;25.90;41.70;;;;;;5032025;28;20444;-75
2023/10/09 13:46:41;;;;;;;3.55;1.15;;;26.10;42.10;;;;;;5031550;28;20052;-76
2023/10/09 13:49:14;;;;;;;1.85;1.20;;;25.90;41.70;;;;;;5032427;28;20032;-76
2023/10/09 13:51:46;;;;;;;3.38;1.08;;;25.90;41.70;;;;;;5032005;28;20526;-76
2023/10/09 13:57:10;;;;;;;3.90;0.93;;;26.00;42.00;;;;;;5048753;28;20033;-77
2023/10/09 13:59:36;;;;;;;2.80;1.08;;;26.00;43.40;;;;;;5031945;28;20166;-78
2023/10/09 14:02:09;;;;;;;3.95;0.95;;;26.00;42.20;;;;;;5048615;28;20052;-78
2023/10/09 14:04:35;;;;;;;3.35;1.05;;;26.10;41.90;;;;;;5031986;28;20485;-77
2023/10/09 14:07:05;;;;;;;5.00;2.67;;;26.10;42.00;;;;;;5032048;28;20381;-77
2023/10/09 14:09:31;;;;;;;2.40;2.20;;;26.20;43.40;;;;;;5015620;28;20036;-76
2023/10/09 14:12:09;;;;;;;3.47;0.80;;;26.30;45.60;;;;;;5032152;28;20076;-78
2023/10/09 14:14:48;;;;;;;4.78;3.35;;;26.50;44.50;;;;;;5053995;28;20099;-74
2023/10/09 14:17:23;;;;;;;4.47;1.10;;;26.40;44.10;;;;;;5032517;28;20141;-74
2023/10/09 14:19:51;;;;;;;2.92;2.25;;;26.40;42.50;;;;;;5048280;28;20134;-77
2023/10/09 14:22:26;;;;;;;2.13;1.88;;;26.50;42.80;;;;;;5047846;28;20064;-76
2023/10/09 14:24:56;;;;;;;2.15;0.65;;;26.50;43.40;;;;;;5032057;28;20166;-76
2023/10/09 14:27:26;;;;;;;1.67;1.00;;;26.60;41.80;;;;;;5048849;28;20037;-75
2023/10/09 14:29:59;;;;;;;6.25;1.58;;;26.60;42.00;;;;;;5028883;28;20075;-77
2023/10/09 14:32:28;;;;;;;4.47;1.00;;;26.60;41.40;;;;;;5043335;28;20083;-75
2023/10/09 14:35:00;;;;;;;1.00;0.93;;;26.60;41.50;;;;;;5034594;28;20052;-75
2023/10/09 14:37:27;;;;;;;2.08;1.00;;;26.50;41.60;;;;;;5048624;28;20564;-75
2023/10/09 14:39:55;;;;;;;1.00;0.88;;;26.60;41.80;;;;;;5048380;28;20030;-74
2023/10/09 14:42:24;;;;;;;1.67;0.80;;;26.50;41.80;;;;;;5032945;28;20113;-76
2023/10/09 14:44:50;;;;;;;0.95;0.82;;;26.50;41.90;;;;;;5049350;28;20457;-75
2023/10/09 14:47:18;;;;;;;2.63;1.40;;;26.40;42.10;;;;;;5033151;28;20122;-75
2023/10/09 14:49:47;;;;;;;1.00;0.73;;;26.40;42.10;;;;;;5050178;28;20029;-75
2023/10/09 14:52:18;;;;;;;1.25;1.10;;;26.40;42.20;;;;;;5034438;28;20402;-75
2023/10/09 14:54:44;;;;;;;2.13;1.23;;;26.50;42.40;;;;;;5034417;28;20129;-75
2023/10/09 14:57:11;;;;;;;2.83;1.17;;;26.50;42.30;;;;;;5034955;28;20029;-75
2023/10/09 14:59:38;;;;;;;1.13;0.77;;;26.50;41.90;;;;;;5033138;28;20120;-75
2023/10/09 15:02:07;;;;;;;2.95;1.58;;;26.40;42.10;;;;;;5033772;28;20116;-75
2023/10/09 15:04:37;;;;;;;6.53;1.40;;;26.50;42.40;;;;;;5034423;28;20120;-75
2023/10/09 15:07:09;;;;;;;3.60;1.10;;;26.50;42.40;;;;;;5034387;28;20111;-75
2023/10/09 15:09:39;;;;;;;4.90;1.40;;;26.40;42.50;;;;;;5034173;28;20063;-75
2023/10/09 15:12:06;;;;;;;2.67;1.25;;;26.40;42.50;;;;;;5041771;28;20102;-74
2023/10/09 15:14:33;;;;;;;3.03;1.42;;;26.40;42.30;;;;;;5053791;28;20037;-74
2023/10/09 15:16:59;;;;;;;1.77;1.20;;;26.40;42.40;;;;;;5054357;28;20055;-72
2023/10/09 15:19:31;;;;;;;2.13;1.02;;;26.40;42.70;;;;;;5045135;28;20060;-73
2023/10/09 15:21:58;;;;;;;1.33;1.20;;;26.40;42.70;;;;;;5053584;28;20550;-73
2023/10/09 15:24:27;;;;;;;4.25;1.23;;;26.30;42.60;;;;;;5053838;28;20459;-73
2023/10/09 15:26:57;;;;;;;1.38;0.85;;;26.50;43.60;;;;;;5052503;28;20041;-73
2023/10/09 15:29:28;;;;;;;1.63;1.10;;;26.60;42.50;;;;;;5053477;28;20037;-73
2023/10/09 15:32:05;;;;;;;2.92;1.30;;;26.40;43.00;;;;;;5052988;28;20037;-73
2023/10/09 15:34:32;;;;;;;6.03;1.50;;;26.80;43.90;;;;;;5041314;28;20544;-75
2023/10/09 15:36:58;;;;;;;2.80;1.55;;;26.70;42.70;;;;;;5051534;28;20112;-75
2023/10/09 15:39:23;;;;;;;18.00;3.88;;;26.80;41.50;;;;;;5037141;28;20128;-75
2023/10/09 15:41:50;;;;;;;150.82;36.60;;;26.90;40.80;;;;;;5033136;28;20033;-73
2023/10/09 15:44:17;;;;;;;153.88;39.97;;;26.80;42.90;;;;;;5033249;28;20045;-75
2023/10/09 15:46:45;;;;;;;58.65;13.60;;;27.00;44.40;;;;;;5032908;28;20156;-73
2023/10/09 15:49:13;;;;;;;10.43;3.15;;;27.10;44.10;;;;;;5033845;28;20029;-74
2023/10/09 15:51:40;;;;;;;5.97;1.95;;;27.00;42.10;;;;;;5038628;28;20021;-72
2023/10/09 15:54:09;;;;;;;45.97;9.95;;;27.20;43.10;;;;;;5046984;28;20024;-74
2023/10/09 15:56:39;;;;;;;82.90;19.40;;;27.20;41.80;;;;;;5050047;28;20030;-73
2023/10/09 15:59:05;;;;;;;166.10;39.13;;;27.40;47.50;;;;;;5036128;28;20087;-74
2023/10/09 16:01:31;;;;;;;11.23;4.10;;;27.40;47.00;;;;;;5051709;28;20039;-74
2023/10/09 16:03:57;;;;;;;12.02;3.53;;;27.50;42.30;;;;;;5050732;28;20040;-74
2023/10/09 16:06:27;;;;;;;13.40;3.42;;;27.50;40.90;;;;;;5051849;28;20044;-73
2023/10/09 16:08:53;;;;;;;11.80;4.15;;;27.50;45.40;;;;;;5063047;28;20033;-74
2023/10/09 16:11:25;;;;;;;9.85;2.63;;;27.50;37.80;;;;;;5051897;28;20040;-73
2023/10/09 16:13:53;;;;;;;9.98;3.33;;;27.40;36.50;;;;;;5052407;28;20112;-73
2023/10/09 16:16:27;;;;;;;9.10;2.75;;;27.40;35.50;;;;;;5050862;28;20080;-72